Flag for Kazakhstan

Past Weather in Karaganda, Kazakhstan — Yesterday and Last 2 Weeks

Currently: 18 °F. Low level haze. (Weather station: Karaganda, Kazakhstan). See more current weather

Past Weather in Karaganda — Graph

°F

Karaganda Temperature Yesterday

Maximum temperature yesterday: 27 °F (at 3:30 pm)
Minimum temperature yesterday: -9 °F (at 12:30 am)
Average temperature yesterday: 18 °F

High & Low Weather Summary for the Past Weeks

 TemperatureHumidityPressure
High27 °F (Jan 16, 3:30 pm)86% (Jan 12, 10:00 am)30.92 "Hg (Jan 12, 10:00 am)
Low-35 °F (Jan 3, 7:30 am)35% (Jan 16, 6:30 am)29.59 "Hg (Jan 12, 7:30 am)
Average-8 °F67%30.46 "Hg
* Reported Jan 2 4:00 am — Jan 17 4:00 am, Karaganda. Weather by CustomWeather, © 2021

Note: Actual official high and low records may vary slightly from our data, if they occured in-between our weather recording intervals... More about our weather records

Karaganda Weather History for the Previous 24 Hours

Scroll right to see more
 ConditionsComfort  
Time TempWeatherWind HumidityBarometerVisibility
4:00 am
Sun, Jan 17
18 °FLow level haze.15 mph73%29.92 "HgN/A
3:30 am19 °FLow level haze.20 mph68%29.92 "HgN/A
3:00 am21 °FLow level haze.20 mph63%29.89 "HgN/A
2:30 am21 °FClear.13 mph63%29.92 "Hg10 mi
2:00 am19 °FLow level haze.15 mph63%29.89 "HgN/A
1:30 am19 °FLow level haze.15 mph63%29.89 "HgN/A
1:00 am19 °FLow level haze.15 mph63%29.89 "HgN/A
12:30 am19 °FLow level haze.17 mph63%29.89 "HgN/A
12:00 am19 °FLow level haze.22 mph58%29.89 "HgN/A
11:30 pm
Sat, Jan 16
18 °FLow level haze.22 mph62%29.86 "HgN/A
11:00 pm19 °FLow level haze.29 mph58%29.86 "HgN/A
10:30 pm21 °FLow level haze.20 mph49%29.86 "HgN/A
10:00 pm21 °FLow level haze.17 mph49%29.86 "Hg6 mi
9:30 pm21 °FLow level haze.31 mph54%29.83 "Hg2 mi
9:00 pm21 °FLow level haze.36 mph54%29.86 "Hg3 mi
8:30 pm23 °FLow level haze.33 mph50%29.86 "HgN/A
8:00 pm23 °FClear.22 mph46%29.86 "Hg10 mi
7:30 pm21 °FPassing clouds.10 mph49%29.89 "HgN/A
7:00 pm21 °FPassing clouds.8 mph49%29.89 "HgN/A
6:30 pm21 °FSunny.3 mph49%29.92 "Hg10 mi
6:00 pm21 °FSunny.8 mph49%29.92 "Hg10 mi
5:30 pm21 °FPassing clouds.8 mph54%29.95 "HgN/A
5:00 pm23 °FSunny.8 mph50%29.95 "Hg10 mi
4:30 pm25 °FSunny.17 mph50%29.95 "Hg10 mi
4:00 pm25 °FSunny.20 mph50%29.98 "Hg10 mi
3:30 pm27 °FSunny.24 mph46%29.98 "Hg10 mi
3:00 pm25 °FSunny.29 mph50%29.98 "Hg10 mi
2:30 pm25 °FSunny.29 mph50%30.01 "Hg10 mi
2:00 pm25 °FLow level haze.29 mph50%30.04 "HgN/A
1:30 pm25 °FLow level haze.29 mph50%30.04 "HgN/A
1:00 pm25 °FLow level haze.33 mph46%30.07 "HgN/A
12:30 pm25 °FLow level haze.31 mph42%30.07 "HgN/A
12:00 pm23 °FLow level haze.29 mph50%30.09 "HgN/A
11:30 am21 °FLow level haze.29 mph49%30.09 "Hg4 mi
11:00 am21 °FLow level haze.31 mph49%30.09 "Hg4 mi
10:30 am21 °FLow level haze.31 mph49%30.09 "Hg3 mi
10:00 am19 °FLow level haze.31 mph49%30.12 "Hg3 mi
9:30 am18 °FLow level haze.24 mph49%30.12 "HgN/A
9:00 am16 °FClear.10 mph48%30.15 "Hg10 mi
8:30 am18 °FLow level haze.13 mph49%30.18 "HgN/A
8:00 am18 °FLow level haze.29 mph49%30.15 "Hg4 mi
7:30 am16 °FClear.29 mph48%30.18 "Hg10 mi
7:00 am18 °FPassing clouds.15 mph38%30.21 "HgN/A
6:30 am18 °FClear.8 mph35%30.21 "Hg10 mi
6:00 am12 °FClear.15 mph44%30.24 "Hg10 mi
5:30 am14 °FClear.24 mph41%30.24 "Hg10 mi
5:00 am14 °FPassing clouds.13 mph41%30.27 "HgN/A
Weather by CustomWeather, © 2021

See weather overview